Time;durP1;ratioP1;P1;durP2;ratioP2;P2;SDS_P1;SDS_P2;PMS_P1;PMS_P2;Temp;Humidity;BMP_temperature;BMP_pressure;BME280_temperature;BME280_humidity;BME280_pressure;Samples;Min_cycle;Max_cycle;Signal;HPM_P1;HPM_P2
2021/05/15 01:12:37;;;;;;;3.23;2.93;;;;;;;;;;6261770;22;20479;-96
2021/05/15 01:15:06;;;;;;;3.80;3.50;;;;;;;;;;6272957;22;20414;-96
2021/05/15 01:56:21;;;;;;;10.63;3.87;;;;;;;;;;6268834;22;20431;-96
2021/05/15 03:34:12;;;;;;;5.33;4.13;;;;;;;;;;6252165;22;20550;-96
2021/05/15 04:12:53;;;;;;;4.10;3.70;;;;;;;;;;6273609;22;20444;-96
2021/05/15 04:15:35;;;;;;;4.40;3.40;;;;;;;;;;6274233;22;20475;-96
2021/05/15 04:18:13;;;;;;;6.17;3.90;;;;;;;;;;6272386;22;20438;-96
2021/05/15 04:20:39;;;;;;;3.80;3.50;;;;;;;;;;6273828;22;20382;-96
2021/05/15 04:23:07;;;;;;;5.77;3.90;;;;;;;;;;6270225;22;20516;-96
2021/05/15 04:25:37;;;;;;;5.60;4.43;;;;;;;;;;6265270;22;20503;-96
2021/05/15 04:28:31;;;;;;;5.60;4.93;;;;;;;;;;6259741;22;20422;-96
2021/05/15 04:33:57;;;;;;;10.20;6.00;;;;;;;;;;6221885;22;20457;-96
2021/05/15 04:38:58;;;;;;;6.57;4.70;;;;;;;;;;6279382;22;20474;-96
2021/05/15 04:41:24;;;;;;;9.37;6.10;;;;;;;;;;6274715;22;20470;-96
2021/05/15 04:44:15;;;;;;;7.10;5.50;;;;;;;;;;6265738;22;20456;-96
2021/05/15 04:46:42;;;;;;;5.93;5.33;;;;;;;;;;6266541;22;20412;-96
2021/05/15 04:49:09;;;;;;;9.37;6.33;;;;;;;;;;6267481;22;20457;-96
2021/05/15 04:51:36;;;;;;;8.13;6.00;;;;;;;;;;6266038;23;20413;-96
2021/05/15 04:54:02;;;;;;;9.60;6.80;;;;;;;;;;6265838;22;20484;-96
2021/05/15 04:59:20;;;;;;;7.60;6.17;;;;;;;;;;6260700;23;20485;-96
2021/05/15 05:01:46;;;;;;;6.00;5.50;;;;;;;;;;6268120;22;20409;-96
2021/05/15 05:04:18;;;;;;;6.33;5.30;;;;;;;;;;6266123;22;20518;-96
2021/05/15 05:06:44;;;;;;;9.23;5.10;;;;;;;;;;6254014;22;20471;-95
2021/05/15 05:09:27;;;;;;;5.40;5.00;;;;;;;;;;6268125;22;20457;-96
2021/05/15 05:25:54;;;;;;;4.97;4.57;;;;;;;;;;6286256;22;20453;-96
2021/05/15 05:28:36;;;;;;;5.47;4.30;;;;;;;;;;6284698;22;20470;-96
2021/05/15 05:31:08;;;;;;;7.60;5.40;;;;;;;;;;6267216;22;20454;-96
2021/05/15 05:33:37;;;;;;;8.07;4.30;;;;;;;;;;6296314;22;20446;-96
2021/05/15 05:38:58;;;;;;;5.33;4.93;;;;;;;;;;6250511;22;21017;-96
2021/05/15 05:44:04;;;;;;;6.20;5.40;;;;;;;;;;6240760;22;20441;-96
2021/05/15 05:46:30;;;;;;;6.60;6.00;;;;;;;;;;6300447;22;20423;-96
2021/05/15 05:48:56;;;;;;;6.40;5.80;;;;;;;;;;6305807;22;20450;-95
2021/05/15 05:53:57;;;;;;;6.43;5.63;;;;;;;;;;6247046;22;20448;-93
2021/05/15 05:59:06;;;;;;;6.23;5.70;;;;;;;;;;6242517;22;20445;-96
2021/05/15 06:38:49;;;;;;;4.93;3.90;;;;;;;;;;6240596;22;20714;-96
2021/05/15 06:51:55;;;;;;;6.67;4.67;;;;;;;;;;6224480;22;20475;-96
2021/05/15 06:54:37;;;;;;;5.20;4.70;;;;;;;;;;6294316;22;20417;-96
2021/05/15 06:59:38;;;;;;;4.83;4.40;;;;;;;;;;6237044;22;20499;-95
2021/05/15 07:02:05;;;;;;;6.20;4.47;;;;;;;;;;6286141;22;20397;-96
2021/05/15 07:13:03;;;;;;;5.93;4.40;;;;;;;;;;6244181;22;20454;-96
2021/05/15 07:15:29;;;;;;;7.60;4.67;;;;;;;;;;6270407;22;20401;-96
2021/05/15 07:21:04;;;;;;;4.80;3.67;;;;;;;;;;6248958;22;20457;-96
2021/05/15 07:34:54;;;;;;;4.57;3.60;;;;;;;;;;6257765;22;20460;-94
2021/05/15 07:42:54;;;;;;;5.57;4.00;;;;;;;;;;6243532;22;20465;-96
2021/05/15 07:48:07;;;;;;;5.07;4.33;;;;;;;;;;6260660;22;20461;-96
2021/05/15 07:50:53;;;;;;;6.07;4.00;;;;;;;;;;6276398;22;20425;-95
2021/05/15 08:13:28;;;;;;;8.93;3.63;;;;;;;;;;6273075;22;20466;-96
2021/05/15 08:15:55;;;;;;;5.50;3.60;;;;;;;;;;6286098;22;20443;-96
2021/05/15 08:26:44;;;;;;;5.60;3.87;;;;;;;;;;6258006;22;20449;-96
2021/05/15 08:48:16;;;;;;;5.73;3.60;;;;;;;;;;6240238;22;20483;-96
2021/05/15 08:50:43;;;;;;;4.17;3.60;;;;;;;;;;6236517;23;20424;-96
2021/05/15 08:53:39;;;;;;;5.53;3.67;;;;;;;;;;6267797;22;20439;-96
2021/05/15 08:59:19;;;;;;;3.40;3.20;;;;;;;;;;6272635;22;20506;-96
2021/05/15 09:01:48;;;;;;;5.10;3.63;;;;;;;;;;6268166;22;20556;-96
2021/05/15 09:04:14;;;;;;;4.73;3.47;;;;;;;;;;6244927;22;20451;-96
2021/05/15 09:06:41;;;;;;;5.57;3.67;;;;;;;;;;6267736;23;20412;-96
2021/05/15 09:12:28;;;;;;;5.57;3.63;;;;;;;;;;6262455;23;20456;-96
2021/05/15 09:15:02;;;;;;;4.50;3.80;;;;;;;;;;6264519;22;20484;-96
2021/05/15 09:17:41;;;;;;;4.30;4.00;;;;;;;;;;6265986;22;20554;-96
2021/05/15 09:20:08;;;;;;;5.10;4.30;;;;;;;;;;6266439;22;20527;-96
2021/05/15 09:25:54;;;;;;;8.63;4.07;;;;;;;;;;6267681;22;20405;-96
2021/05/15 09:39:05;;;;;;;10.00;3.90;;;;;;;;;;6234518;22;21015;-96
2021/05/15 09:41:32;;;;;;;3.93;3.60;;;;;;;;;;6257901;23;20816;-96
2021/05/15 09:43:58;;;;;;;4.30;3.77;;;;;;;;;;6254474;23;20411;-96
2021/05/15 09:46:27;;;;;;;5.00;3.77;;;;;;;;;;6256673;23;20419;-96
2021/05/15 09:49:18;;;;;;;10.90;4.10;;;;;;;;;;6260652;23;20781;-97
2021/05/15 10:06:09;;;;;;;9.10;3.20;;;;;;;;;;6255877;22;20452;-96
2021/05/15 10:09:00;;;;;;;2.80;2.50;;;;;;;;;;6234000;22;20454;-96
2021/05/15 10:14:46;;;;;;;10.00;2.13;;;;;;;;;;6206651;23;20388;-96
2021/05/15 10:20:30;;;;;;;3.87;2.00;;;;;;;;;;6266116;22;20471;-96
2021/05/15 10:23:06;;;;;;;3.50;2.13;;;;;;;;;;6266187;22;20567;-96
2021/05/15 10:25:37;;;;;;;5.23;2.33;;;;;;;;;;6263474;23;20452;-96
2021/05/15 10:28:15;;;;;;;4.50;2.03;;;;;;;;;;6266425;23;20435;-96
2021/05/15 10:31:16;;;;;;;4.37;2.00;;;;;;;;;;6241374;23;20435;-96
2021/05/15 10:34:05;;;;;;;2.33;1.93;;;;;;;;;;6265115;22;20539;-96
2021/05/15 10:36:31;;;;;;;7.67;2.47;;;;;;;;;;6266402;23;20400;-94
2021/05/15 10:39:02;;;;;;;7.27;2.37;;;;;;;;;;6265071;22;20527;-96
2021/05/15 10:41:29;;;;;;;3.57;2.23;;;;;;;;;;6272293;22;20401;-96
2021/05/15 10:43:57;;;;;;;4.33;2.50;;;;;;;;;;6271903;22;20410;-96
2021/05/15 10:46:31;;;;;;;2.80;2.47;;;;;;;;;;6268643;22;20451;-96
2021/05/15 10:49:03;;;;;;;3.80;2.17;;;;;;;;;;6270943;22;20504;-96
2021/05/15 10:52:02;;;;;;;5.03;2.13;;;;;;;;;;6259570;22;20457;-96
2021/05/15 10:54:47;;;;;;;3.90;2.17;;;;;;;;;;6261939;22;20468;-96
2021/05/15 11:02:33;;;;;;;4.17;2.20;;;;;;;;;;6262123;22;20459;-95
2021/05/15 11:07:43;;;;;;;3.90;2.30;;;;;;;;;;6256764;22;20463;-94
2021/05/15 11:10:17;;;;;;;3.00;2.40;;;;;;;;;;6266235;23;20545;-96
2021/05/15 11:12:59;;;;;;;3.70;2.40;;;;;;;;;;6266528;23;20401;-94
2021/05/15 11:15:33;;;;;;;5.83;3.30;;;;;;;;;;6270029;23;20416;-96
2021/05/15 11:18:02;;;;;;;6.90;2.43;;;;;;;;;;6268163;23;20399;-97
2021/05/15 11:28:50;;;;;;;9.67;2.50;;;;;;;;;;6261487;22;20496;-94
2021/05/15 11:31:22;;;;;;;5.07;2.70;;;;;;;;;;6235202;22;20658;-95
2021/05/15 11:33:50;;;;;;;3.57;2.30;;;;;;;;;;6237203;22;20411;-96
2021/05/15 11:39:22;;;;;;;2.93;2.00;;;;;;;;;;6245865;22;20453;-96
2021/05/15 11:47:28;;;;;;;6.50;2.10;;;;;;;;;;6270024;22;20411;-96
2021/05/15 11:53:02;;;;;;;3.73;2.07;;;;;;;;;;6246633;22;20521;-96
2021/05/15 11:58:04;;;;;;;4.27;2.43;;;;;;;;;;6269770;22;20435;-96
2021/05/15 12:03:26;;;;;;;4.60;2.23;;;;;;;;;;6263291;22;20502;-96
2021/05/15 12:08:39;;;;;;;3.63;2.57;;;;;;;;;;6249528;22;20451;-96
2021/05/15 12:11:05;;;;;;;5.47;2.80;;;;;;;;;;6286439;22;20455;-96
2021/05/15 12:13:33;;;;;;;2.00;1.90;;;;;;;;;;6295554;22;20500;-96
2021/05/15 12:18:37;;;;;;;4.10;2.20;;;;;;;;;;6286710;22;20456;-96
2021/05/15 12:21:06;;;;;;;2.93;2.03;;;;;;;;;;6294426;22;20456;-96
2021/05/15 12:23:44;;;;;;;2.70;1.90;;;;;;;;;;6296433;22;20441;-96
2021/05/15 12:26:12;;;;;;;2.80;2.10;;;;;;;;;;6290868;22;20419;-94
2021/05/15 12:28:42;;;;;;;5.33;2.57;;;;;;;;;;6292178;22;20469;-96
2021/05/15 12:31:19;;;;;;;5.63;1.97;;;;;;;;;;6291597;22;21091;-93
2021/05/15 12:33:53;;;;;;;3.27;2.27;;;;;;;;;;6291933;22;20471;-96
2021/05/15 12:36:22;;;;;;;4.73;2.43;;;;;;;;;;6289243;22;20405;-96
2021/05/15 12:38:49;;;;;;;2.77;2.53;;;;;;;;;;6298207;22;20391;-96
2021/05/15 12:49:35;;;;;;;6.70;2.40;;;;;;;;;;6245373;22;20466;-96
2021/05/15 13:13:10;;;;;;;1.93;1.83;;;;;;;;;;6279840;22;20460;-96
2021/05/15 13:18:39;;;;;;;7.67;2.10;;;;;;;;;;6297036;22;20281;-96
2021/05/15 13:21:26;;;;;;;5.73;2.30;;;;;;;;;;6274201;22;20461;-96
2021/05/15 13:24:18;;;;;;;5.47;1.87;;;;;;;;;;6263861;22;20467;-96
2021/05/15 13:26:49;;;;;;;3.00;2.00;;;;;;;;;;6259240;23;20410;-96
2021/05/15 13:32:25;;;;;;;3.93;2.10;;;;;;;;;;6291698;22;20450;-96
2021/05/15 13:38:16;;;;;;;3.60;2.27;;;;;;;;;;6265064;22;20483;-96
2021/05/15 13:40:42;;;;;;;6.43;3.30;;;;;;;;;;6260122;22;20413;-96
2021/05/15 13:43:13;;;;;;;5.80;2.97;;;;;;;;;;6261699;22;20429;-96
2021/05/15 13:45:43;;;;;;;5.10;3.17;;;;;;;;;;6261883;22;20409;-96
2021/05/15 13:48:30;;;;;;;12.87;3.23;;;;;;;;;;6261527;22;20459;-96
2021/05/15 13:53:50;;;;;;;5.10;3.20;;;;;;;;;;6260097;22;20457;-95
2021/05/15 13:56:39;;;;;;;3.50;3.00;;;;;;;;;;6268625;22;20410;-96
2021/05/15 13:59:09;;;;;;;4.27;3.17;;;;;;;;;;6264054;22;20403;-96
2021/05/15 14:01:55;;;;;;;8.33;4.00;;;;;;;;;;6266862;22;20459;-96
2021/05/15 14:04:32;;;;;;;7.00;4.03;;;;;;;;;;6294964;22;20405;-95
2021/05/15 14:09:53;;;;;;;7.10;5.00;;;;;;;;;;6290870;22;20490;-96
2021/05/15 14:12:44;;;;;;;8.50;7.00;;;;;;;;;;6301096;22;20445;-96
2021/05/15 14:17:51;;;;;;;6.20;4.93;;;;;;;;;;6288347;22;20408;-96
2021/05/15 14:20:22;;;;;;;8.40;3.90;;;;;;;;;;6294464;22;20457;-95
2021/05/15 14:22:48;;;;;;;6.13;4.60;;;;;;;;;;6290142;22;20405;-95
2021/05/15 14:25:14;;;;;;;10.97;4.47;;;;;;;;;;6283304;22;20431;-94
2021/05/15 14:27:40;;;;;;;5.70;4.17;;;;;;;;;;6283242;22;20405;-94
2021/05/15 14:30:07;;;;;;;9.57;5.67;;;;;;;;;;6284556;22;20456;-93
2021/05/15 14:32:33;;;;;;;8.90;4.60;;;;;;;;;;6297165;22;20393;-96
2021/05/15 14:35:00;;;;;;;5.47;4.40;;;;;;;;;;6290988;22;20460;-96
2021/05/15 14:45:25;;;;;;;3.83;3.50;;;;;;;;;;6265815;22;20427;-96
2021/05/15 15:09:35;;;;;;;9.67;4.90;;;;;;;;;;5140383;27;20336;-96
2021/05/15 15:12:01;;;;;;;6.83;4.80;;;;;;;;;;5150383;27;20531;-96
2021/05/15 15:14:27;;;;;;;7.93;4.50;;;;;;;;;;5146046;27;21155;-96
2021/05/15 15:17:01;;;;;;;5.23;4.33;;;;;;;;;;5151194;27;20471;-96
2021/05/15 15:19:28;;;;;;;6.83;4.10;;;;;;;;;;5151021;27;20449;-96
2021/05/15 15:21:53;;;;;;;14.37;4.63;;;;;;;;;;5150781;27;20447;-96
2021/05/15 15:24:20;;;;;;;4.20;3.80;;;;;;;;;;5152567;27;20453;-96
2021/05/15 15:26:47;;;;;;;4.20;3.63;;;;;;;;;;5184617;22;20518;-96
2021/05/15 15:29:13;;;;;;;4.70;3.20;;;;;;;;;;5156680;27;20496;-96
2021/05/15 15:31:39;;;;;;;4.23;3.70;;;;;;;;;;5149447;27;20446;-95
2021/05/15 15:34:05;;;;;;;5.20;3.17;;;;;;;;;;5150595;27;20453;-96
2021/05/15 15:36:32;;;;;;;3.53;3.23;;;;;;;;;;5155192;27;20521;-96
2021/05/15 15:38:58;;;;;;;8.70;3.53;;;;;;;;;;5151685;27;20910;-96
2021/05/15 15:41:24;;;;;;;4.73;3.30;;;;;;;;;;5150400;27;20464;-96
2021/05/15 15:43:54;;;;;;;5.53;3.67;;;;;;;;;;5153469;27;20791;-96
2021/05/15 17:19:16;;;;;;;7.87;5.10;;;;;;;;;;5136902;22;20560;-96
2021/05/15 17:21:51;;;;;;;5.63;4.97;;;;;;;;;;5084732;28;20921;-96
2021/05/15 17:54:35;;;;;;;8.13;5.23;;;;;;;;;;5876988;22;20511;-96
2021/05/15 17:57:05;;;;;;;7.47;6.87;;;;;;;;;;5085093;28;20472;-96
2021/05/15 17:59:31;;;;;;;5.10;4.60;;;;;;;;;;5071336;28;20447;-96
2021/05/15 18:04:42;;;;;;;4.30;3.90;;;;;;;;;;5423329;22;20492;-96
2021/05/15 18:07:08;;;;;;;4.20;3.80;;;;;;;;;;5082237;28;20473;-96
2021/05/15 18:09:35;;;;;;;5.70;3.27;;;;;;;;;;5083264;22;20475;-96
2021/05/15 18:12:01;;;;;;;5.43;3.20;;;;;;;;;;5070263;28;20457;-96
2021/05/15 18:36:50;;;;;;;4.73;4.20;;;;;;;;;;5832261;22;20543;-96
2021/05/15 18:56:02;;;;;;;5.80;5.17;;;;;;;;;;5082255;28;20476;-96
2021/05/15 19:14:35;;;;;;;9.57;4.93;;;;;;;;;;4088500;22;20485;-95
2021/05/15 19:17:02;;;;;;;6.17;5.60;;;;;;;;;;5071326;28;20456;-96
2021/05/15 19:19:33;;;;;;;8.20;5.70;;;;;;;;;;5069044;28;20457;-96
2021/05/15 19:21:59;;;;;;;7.00;5.90;;;;;;;;;;5080941;28;21216;-96
2021/05/15 19:24:25;;;;;;;7.43;6.63;;;;;;;;;;5074877;28;20502;-95
2021/05/15 19:26:52;;;;;;;7.10;6.40;;;;;;;;;;5079432;28;20457;-96
2021/05/15 19:29:18;;;;;;;6.63;6.03;;;;;;;;;;5077446;28;20493;-96
2021/05/15 19:34:31;;;;;;;6.90;5.53;;;;;;;;;;5123349;22;20481;-96
2021/05/15 19:36:57;;;;;;;7.13;4.60;;;;;;;;;;5347190;22;20567;-96
2021/05/15 21:12:38;;;;;;;6.37;5.70;;;;;;;;;;5094263;28;20498;-96
2021/05/15 21:15:09;;;;;;;6.30;4.50;;;;;;;;;;5103229;28;20470;-96
2021/05/15 21:17:35;;;;;;;5.47;4.93;;;;;;;;;;5092844;28;20452;-96
2021/05/15 21:20:02;;;;;;;5.30;4.80;;;;;;;;;;5097071;28;21918;-96
2021/05/15 21:22:28;;;;;;;4.67;4.37;;;;;;;;;;5089214;28;20475;-96
2021/05/15 21:25:11;;;;;;;5.50;5.00;;;;;;;;;;5096033;28;20456;-96
2021/05/15 21:34:00;;;;;;;4.80;4.40;;;;;;;;;;4949815;28;20449;-96
2021/05/15 21:36:28;;;;;;;5.33;4.40;;;;;;;;;;5090765;28;20445;-95
2021/05/15 21:38:54;;;;;;;5.80;5.27;;;;;;;;;;5090075;28;20464;-96
2021/05/15 21:41:20;;;;;;;6.00;4.77;;;;;;;;;;5088557;28;20512;-96
2021/05/15 21:43:46;;;;;;;8.33;4.97;;;;;;;;;;5076433;28;20448;-96
2021/05/15 21:46:12;;;;;;;4.90;4.50;;;;;;;;;;5084603;28;20450;-96
2021/05/15 21:48:38;;;;;;;5.17;4.77;;;;;;;;;;5083883;28;20549;-95
2021/05/15 21:51:05;;;;;;;7.77;4.67;;;;;;;;;;5083627;28;20464;-94
2021/05/15 21:53:32;;;;;;;5.73;5.03;;;;;;;;;;5083341;28;20448;-95
2021/05/15 21:55:58;;;;;;;6.57;4.90;;;;;;;;;;5089144;28;21032;-95
2021/05/15 21:58:25;;;;;;;5.63;5.13;;;;;;;;;;5083621;28;20454;-96
2021/05/15 22:00:51;;;;;;;5.43;4.60;;;;;;;;;;5079630;28;20479;-95
2021/05/15 22:03:18;;;;;;;6.30;5.60;;;;;;;;;;5084604;28;20442;-96
2021/05/15 22:05:44;;;;;;;5.73;5.23;;;;;;;;;;5094484;28;20567;-95
2021/05/15 22:08:12;;;;;;;6.33;5.83;;;;;;;;;;5081337;28;20496;-95
2021/05/15 22:10:38;;;;;;;6.03;5.37;;;;;;;;;;5080293;28;20472;-96
2021/05/15 22:13:07;;;;;;;6.20;5.70;;;;;;;;;;5084503;28;20451;-96
2021/05/15 22:15:34;;;;;;;6.53;6.00;;;;;;;;;;5095871;28;20437;-95
2021/05/15 22:18:00;;;;;;;8.80;6.33;;;;;;;;;;5083880;28;20509;-94
2021/05/15 22:20:28;;;;;;;8.10;7.30;;;;;;;;;;5091996;28;20455;-94
2021/05/15 22:22:54;;;;;;;7.27;6.57;;;;;;;;;;5077298;28;20490;-94
2021/05/15 22:25:21;;;;;;;7.00;6.40;;;;;;;;;;5083161;28;20452;-94
2021/05/15 22:27:48;;;;;;;5.97;5.47;;;;;;;;;;5077227;28;20488;-95
2021/05/15 22:30:16;;;;;;;9.50;5.10;;;;;;;;;;5079867;28;20445;-96
2021/05/15 22:32:42;;;;;;;6.00;5.50;;;;;;;;;;5082403;28;20449;-94
2021/05/15 22:35:08;;;;;;;6.83;6.00;;;;;;;;;;5090698;28;20456;-95
2021/05/15 22:37:35;;;;;;;5.83;5.33;;;;;;;;;;5083199;28;20459;-95
2021/05/15 22:40:01;;;;;;;6.57;5.50;;;;;;;;;;5094168;28;20448;-94
2021/05/15 22:42:28;;;;;;;7.13;6.40;;;;;;;;;;5086496;28;20452;-94
2021/05/15 22:44:54;;;;;;;6.30;5.80;;;;;;;;;;5084147;28;20442;-96
2021/05/15 22:47:20;;;;;;;7.50;6.50;;;;;;;;;;5089445;28;20456;-95
2021/05/15 22:49:46;;;;;;;6.47;5.87;;;;;;;;;;5091656;28;20513;-95
2021/05/15 22:52:11;;;;;;;5.90;5.40;;;;;;;;;;5089878;28;20444;-96
2021/05/15 22:54:37;;;;;;;7.83;5.73;;;;;;;;;;5091515;28;20476;-96
2021/05/15 22:57:07;;;;;;;5.30;4.80;;;;;;;;;;5093668;28;20448;-96
2021/05/15 22:59:35;;;;;;;5.97;5.47;;;;;;;;;;5092742;28;20488;-95
2021/05/15 23:02:02;;;;;;;5.87;4.97;;;;;;;;;;5091466;28;20456;-95
2021/05/15 23:04:28;;;;;;;8.47;5.53;;;;;;;;;;5087089;28;20448;-95
2021/05/15 23:06:54;;;;;;;6.00;5.40;;;;;;;;;;5094914;28;21225;-96
2021/05/15 23:09:20;;;;;;;8.13;4.83;;;;;;;;;;5088611;28;20488;-96
2021/05/15 23:11:46;;;;;;;6.30;4.83;;;;;;;;;;5092424;28;20448;-96
2021/05/15 23:14:12;;;;;;;6.80;5.23;;;;;;;;;;5090513;28;20449;-96
2021/05/15 23:16:39;;;;;;;6.37;5.00;;;;;;;;;;5093234;28;20505;-95
2021/05/15 23:19:05;;;;;;;5.83;5.40;;;;;;;;;;5089981;28;20445;-95
2021/05/15 23:21:31;;;;;;;5.70;5.20;;;;;;;;;;5106463;22;20493;-96
2021/05/15 23:23:57;;;;;;;6.13;5.60;;;;;;;;;;5064424;28;20471;-96
2021/05/15 23:26:23;;;;;;;6.20;5.60;;;;;;;;;;5065438;28;20981;-96
2021/05/15 23:28:50;;;;;;;6.83;6.23;;;;;;;;;;5067953;28;20477;-96
2021/05/15 23:31:16;;;;;;;5.73;5.23;;;;;;;;;;5066602;28;20481;-96
2021/05/15 23:33:43;;;;;;;6.50;5.90;;;;;;;;;;5067190;28;20449;-96
2021/05/15 23:36:09;;;;;;;7.90;5.90;;;;;;;;;;5070602;28;20526;-94
2021/05/15 23:38:35;;;;;;;6.10;5.50;;;;;;;;;;5077460;28;20489;-94
2021/05/15 23:41:01;;;;;;;6.50;5.73;;;;;;;;;;5067098;28;20456;-96
2021/05/15 23:43:27;;;;;;;6.37;5.70;;;;;;;;;;5075886;28;20471;-96
2021/05/15 23:45:53;;;;;;;9.70;5.60;;;;;;;;;;5070844;28;20453;-96
2021/05/15 23:48:21;;;;;;;6.50;5.53;;;;;;;;;;5071844;28;20544;-96
2021/05/15 23:50:48;;;;;;;6.23;5.20;;;;;;;;;;5068999;28;20464;-96
2021/05/15 23:53:17;;;;;;;6.67;4.80;;;;;;;;;;5076848;28;20503;-95
2021/05/15 23:55:43;;;;;;;5.80;5.30;;;;;;;;;;5065238;28;20465;-96
2021/05/15 23:58:09;;;;;;;6.43;5.83;;;;;;;;;;5078917;28;20442;-96
